createdAt,value
2022-12-17T00:00:38.150Z,55.91
2022-12-17T00:03:24.232Z,56.05
2022-12-17T00:06:11.587Z,56.53
2022-12-17T00:08:57.157Z,56.64
2022-12-17T00:11:42.581Z,56.78
2022-12-17T00:14:29.473Z,56.92
2022-12-17T00:17:14.866Z,57.11
2022-12-17T00:20:00.324Z,57.33
2022-12-17T00:22:45.723Z,57.15
2022-12-17T00:25:31.282Z,57.20
2022-12-17T00:28:16.926Z,57.46
2022-12-17T00:31:10.337Z,57.45
2022-12-17T00:33:56.102Z,57.85
2022-12-17T00:36:42.105Z,58.05
2022-12-17T00:39:27.838Z,57.81
2022-12-17T00:42:15.027Z,58.30
2022-12-17T00:45:00.466Z,58.63
2022-12-17T00:47:47.334Z,58.21
2022-12-17T00:50:33.034Z,58.75
2022-12-17T00:53:18.529Z,58.22
2022-12-17T00:56:04.107Z,58.10
2022-12-17T00:58:49.581Z,57.84
2022-12-17T01:01:35.312Z,58.38
2022-12-17T01:04:22.887Z,58.35
2022-12-17T01:07:08.366Z,58.39
2022-12-17T01:09:53.895Z,58.39
2022-12-17T01:12:39.623Z,57.46
2022-12-17T01:15:26.406Z,56.76
2022-12-17T01:18:11.913Z,56.98
2022-12-17T01:20:58.651Z,56.58
2022-12-17T01:23:44.216Z,56.84
2022-12-17T01:26:29.794Z,57.01
2022-12-17T01:29:15.785Z,57.52
2022-12-17T01:32:01.932Z,58.00
2022-12-17T01:34:47.742Z,57.72
2022-12-17T01:37:36.034Z,57.73
2022-12-17T01:40:22.112Z,58.06
2022-12-17T01:43:07.654Z,57.99
2022-12-17T01:45:57.583Z,58.68
2022-12-17T01:48:50.424Z,58.73
2022-12-17T01:51:37.514Z,58.45
2022-12-17T01:54:25.249Z,58.14
2022-12-17T01:57:11.778Z,57.74
2022-12-17T02:00:05.904Z,58.11
2022-12-17T02:02:51.879Z,57.67
2022-12-17T02:05:50.680Z,57.82
2022-12-17T02:08:48.389Z,58.22
2022-12-17T02:11:48.279Z,58.04
2022-12-17T02:14:45.383Z,58.21
2022-12-17T02:17:39.813Z,58.11
2022-12-17T02:20:41.093Z,58.30
2022-12-17T02:23:40.487Z,58.34
2022-12-17T02:26:35.469Z,58.58
2022-12-17T02:29:25.791Z,58.64
2022-12-17T02:32:13.010Z,58.99
2022-12-17T02:35:06.300Z,58.65
2022-12-17T02:37:52.492Z,58.51
2022-12-17T02:40:42.173Z,58.57
2022-12-17T02:43:29.590Z,58.34
2022-12-17T02:46:16.524Z,58.21
2022-12-17T02:49:02.271Z,58.77
2022-12-17T02:51:48.236Z,58.97
2022-12-17T02:54:33.872Z,59.03
2022-12-17T02:57:19.304Z,58.61
2022-12-17T03:00:04.902Z,59.03
2022-12-17T03:02:51.796Z,59.37
2022-12-17T03:05:45.742Z,58.40
2022-12-17T03:08:31.982Z,58.88
2022-12-17T03:11:37.531Z,59.92
2022-12-17T03:14:23.262Z,59.99
2022-12-17T03:17:09.151Z,59.94
2022-12-17T03:19:55.889Z,60.41
2022-12-17T03:22:41.506Z,60.23
2022-12-17T03:25:27.448Z,59.86
2022-12-17T03:28:12.985Z,61.45
2022-12-17T03:30:58.688Z,60.61
2022-12-17T03:33:44.475Z,60.03
2022-12-17T03:36:36.201Z,59.95
2022-12-17T03:39:22.713Z,59.35
2022-12-17T03:42:08.297Z,59.19
2022-12-17T03:44:53.939Z,58.71
2022-12-17T03:47:39.551Z,58.52
2022-12-17T03:50:25.920Z,58.53
2022-12-17T03:53:12.705Z,58.97
2022-12-17T03:55:58.489Z,60.05
2022-12-17T03:58:43.924Z,60.19
2022-12-17T04:01:29.497Z,59.60
2022-12-17T04:04:15.270Z,59.71
2022-12-17T04:07:00.857Z,60.33
2022-12-17T04:09:47.626Z,60.18
2022-12-17T04:12:33.083Z,61.04
2022-12-17T04:15:18.933Z,60.02
2022-12-17T04:18:04.678Z,59.30
2022-12-17T04:20:50.158Z,59.48
2022-12-17T04:23:36.190Z,59.35
2022-12-17T04:26:23.318Z,58.82
2022-12-17T04:29:09.359Z,58.16
2022-12-17T04:31:54.825Z,58.82
2022-12-17T04:34:40.245Z,58.53
2022-12-17T04:37:25.803Z,58.71
2022-12-17T04:40:11.244Z,58.18
2022-12-17T04:42:58.027Z,58.47
2022-12-17T04:45:43.692Z,58.39
2022-12-17T04:48:32.120Z,58.91
2022-12-17T04:51:17.620Z,58.68
2022-12-17T04:54:03.165Z,58.24
2022-12-17T04:56:48.631Z,58.58
2022-12-17T04:59:35.604Z,58.52
2022-12-17T05:02:21.255Z,58.80
2022-12-17T05:05:07.049Z,58.34
2022-12-17T05:07:52.628Z,58.11
2022-12-17T05:10:38.238Z,57.77
2022-12-17T05:13:23.738Z,58.49
2022-12-17T05:16:14.212Z,57.78
2022-12-17T05:18:59.918Z,58.12
2022-12-17T05:21:45.379Z,57.55
2022-12-17T05:24:30.778Z,56.64
2022-12-17T05:27:16.702Z,56.56
2022-12-17T05:30:02.166Z,56.91
2022-12-17T05:32:49.080Z,56.99
2022-12-17T05:35:34.527Z,56.29
2022-12-17T05:38:23.286Z,58.14
2022-12-17T05:41:10.765Z,56.37
2022-12-17T05:43:56.183Z,58.00
2022-12-17T05:46:41.748Z,57.80
2022-12-17T05:49:28.878Z,58.22
2022-12-17T05:52:14.396Z,57.70
2022-12-17T05:54:59.877Z,58.27
2022-12-17T05:57:45.703Z,56.73
2022-12-17T06:00:32.455Z,56.76
2022-12-17T06:03:19.710Z,56.76
2022-12-17T06:06:12.434Z,57.56
2022-12-17T06:08:57.858Z,57.12
2022-12-17T06:11:43.376Z,58.28
2022-12-17T06:14:29.328Z,58.39
2022-12-17T06:17:14.849Z,59.14
2022-12-17T06:20:00.249Z,59.30
2022-12-17T06:22:47.106Z,60.19
2022-12-17T06:25:32.757Z,60.84
2022-12-17T06:28:19.898Z,60.38
2022-12-17T06:31:09.970Z,59.89
2022-12-17T06:33:56.157Z,58.48
2022-12-17T06:36:41.830Z,58.02
2022-12-17T06:39:29.457Z,58.07
2022-12-17T06:42:14.957Z,57.86
2022-12-17T06:45:00.521Z,58.61
2022-12-17T06:47:45.933Z,58.05
2022-12-17T06:50:31.414Z,57.83
2022-12-17T06:53:19.459Z,57.70
2022-12-17T06:56:06.272Z,58.22
2022-12-17T06:58:51.912Z,58.97
2022-12-17T07:01:38.237Z,58.84
2022-12-17T07:04:24.741Z,58.85
2022-12-17T07:07:10.397Z,60.00
2022-12-17T07:09:55.930Z,60.27
2022-12-17T07:12:44.074Z,59.75
2022-12-17T07:15:30.177Z,60.80
2022-12-17T07:18:18.349Z,60.38
2022-12-17T07:21:05.373Z,60.91
2022-12-17T07:23:51.509Z,59.77
2022-12-17T07:26:37.423Z,59.04
2022-12-17T07:29:24.653Z,59.69
2022-12-17T07:32:10.137Z,59.39
2022-12-17T07:34:56.003Z,59.50
2022-12-17T07:37:41.615Z,60.01
2022-12-17T07:40:28.817Z,58.82
2022-12-17T07:43:14.438Z,58.54
2022-12-17T07:46:01.498Z,60.02
2022-12-17T07:48:47.320Z,59.12
2022-12-17T07:51:33.336Z,59.38
2022-12-17T07:54:18.889Z,58.60
2022-12-17T07:57:04.658Z,57.43
2022-12-17T07:59:50.208Z,58.72
2022-12-17T08:02:37.817Z,59.17
2022-12-17T08:05:24.034Z,58.20
2022-12-17T08:08:09.473Z,57.97
2022-12-17T08:10:55.261Z,57.88
2022-12-17T08:13:40.710Z,58.76
2022-12-17T08:16:27.081Z,57.53
2022-12-17T08:19:14.229Z,58.07
2022-12-17T08:21:59.809Z,57.41
2022-12-17T08:24:45.488Z,56.73
2022-12-17T08:27:31.146Z,56.60
2022-12-17T08:30:16.633Z,57.30
2022-12-17T08:33:02.167Z,56.49
2022-12-17T08:35:48.712Z,56.39
2022-12-17T08:38:34.235Z,57.02
2022-12-17T08:41:20.302Z,56.98
2022-12-17T08:44:05.764Z,57.50
2022-12-17T08:46:51.204Z,58.00
2022-12-17T08:49:36.570Z,58.02
2022-12-17T08:52:24.898Z,58.05
2022-12-17T08:55:10.650Z,56.83
2022-12-17T08:57:55.923Z,57.92
2022-12-17T09:00:41.524Z,58.83
2022-12-17T09:03:27.773Z,58.38
2022-12-17T09:06:13.686Z,58.70
2022-12-17T09:09:00.580Z,59.09
2022-12-17T09:11:46.023Z,58.77
2022-12-17T09:14:31.543Z,58.28
2022-12-17T09:17:17.136Z,58.55
2022-12-17T09:20:02.738Z,59.38
2022-12-17T09:22:48.113Z,58.90
2022-12-17T09:25:34.818Z,57.56
2022-12-17T09:28:21.258Z,57.58
2022-12-17T09:31:07.058Z,57.30
2022-12-17T09:33:53.333Z,56.79
2022-12-17T09:36:39.077Z,57.37
2022-12-17T09:39:24.608Z,57.46
2022-12-17T09:42:23.412Z,58.18
2022-12-17T09:45:17.345Z,58.22
2022-12-17T09:48:16.333Z,58.61
2022-12-17T09:51:04.879Z,57.81
2022-12-17T09:53:57.359Z,58.33
2022-12-17T09:56:48.372Z,58.32
2022-12-17T09:59:40.762Z,58.23
2022-12-17T10:02:35.680Z,58.51
2022-12-17T10:05:25.863Z,58.99
2022-12-17T10:08:13.167Z,58.22
2022-12-17T10:11:04.707Z,59.12
2022-12-17T10:13:50.233Z,58.49
2022-12-17T10:16:47.540Z,58.09
2022-12-17T10:19:43.732Z,58.06
2022-12-17T10:22:34.579Z,58.55
2022-12-17T10:25:24.693Z,58.86
2022-12-17T10:28:10.762Z,58.18
2022-12-17T10:30:57.418Z,57.66
2022-12-17T10:33:44.417Z,58.04
2022-12-17T10:36:42.167Z,58.33
2022-12-17T10:39:36.748Z,58.32
2022-12-17T10:42:22.718Z,58.08
2022-12-17T10:45:08.581Z,57.42
2022-12-17T10:47:54.035Z,57.45
2022-12-17T10:50:42.674Z,57.93
2022-12-17T10:53:39.769Z,57.46
2022-12-17T10:56:38.888Z,57.14
2022-12-17T10:59:31.194Z,57.81
2022-12-17T11:02:22.853Z,57.83
2022-12-17T11:05:11.019Z,58.92
2022-12-17T11:08:01.841Z,58.99
2022-12-17T11:10:55.383Z,59.05
2022-12-17T11:13:52.040Z,58.88
2022-12-17T11:16:44.687Z,59.10
2022-12-17T11:19:51.823Z,58.80
2022-12-17T11:22:49.945Z,58.89
2022-12-17T11:26:01.301Z,58.73
2022-12-17T11:28:51.479Z,58.85
2022-12-17T11:32:09.555Z,58.05
2022-12-17T11:35:22.425Z,57.98
2022-12-17T11:38:22.598Z,58.20
2022-12-17T11:41:17.829Z,58.28
2022-12-17T11:44:14.477Z,57.71
2022-12-17T11:47:10.453Z,58.06
2022-12-17T11:50:08.579Z,58.16
2022-12-17T11:53:08.113Z,57.94
2022-12-17T11:56:03.295Z,57.91
2022-12-17T11:58:59.115Z,57.94
2022-12-17T12:01:55.365Z,57.01
2022-12-17T12:05:08.699Z,57.33
2022-12-17T12:08:04.926Z,57.79
2022-12-17T12:11:01.409Z,57.36
2022-12-17T12:13:58.660Z,57.66
2022-12-17T12:16:54.963Z,57.28
2022-12-17T12:19:49.081Z,57.52
2022-12-17T12:22:42.243Z,57.38
2022-12-17T12:25:47.162Z,57.71
2022-12-17T12:28:45.423Z,57.76
2022-12-17T12:31:46.734Z,57.65
2022-12-17T12:34:39.924Z,57.81
2022-12-17T12:37:30.922Z,58.07
2022-12-17T12:40:23.357Z,57.89
2022-12-17T12:43:20.384Z,57.76
2022-12-17T12:46:16.531Z,57.84
2022-12-17T12:49:13.658Z,57.52
2022-12-17T12:51:59.620Z,56.89
2022-12-17T12:54:49.620Z,57.00
2022-12-17T12:57:48.149Z,56.98
2022-12-17T13:00:53.646Z,56.17
2022-12-17T13:03:47.837Z,56.81
2022-12-17T13:06:45.583Z,55.73
2022-12-17T13:09:35.256Z,54.91
2022-12-17T13:12:25.498Z,55.39
2022-12-17T13:15:13.453Z,55.78
2022-12-17T13:17:54.498Z,56.36
2022-12-17T13:20:28.543Z,57.31
2022-12-17T13:23:24.849Z,57.22
2022-12-17T13:26:23.084Z,57.46
2022-12-17T13:29:10.181Z,57.45
2022-12-17T13:31:57.336Z,57.73
2022-12-17T13:34:35.061Z,57.28
2022-12-17T13:37:13.757Z,57.26
2022-12-17T13:39:56.180Z,57.15
2022-12-17T13:42:29.930Z,56.72
2022-12-17T13:44:59.187Z,56.20
2022-12-17T13:47:30.489Z,56.68
2022-12-17T13:52:47.359Z,57.16
2022-12-17T13:55:21.651Z,57.12
2022-12-17T13:57:50.701Z,57.68
2022-12-17T14:00:25.206Z,57.75
2022-12-17T14:02:53.672Z,57.60
2022-12-17T14:05:34.337Z,57.82
2022-12-17T14:08:05.294Z,57.81
2022-12-17T14:10:34.210Z,57.80
2022-12-17T14:13:08.080Z,58.88
2022-12-17T14:15:35.249Z,58.48
2022-12-17T14:18:04.090Z,58.99
2022-12-17T14:20:35.219Z,58.55
2022-12-17T14:23:06.261Z,58.83
2022-12-17T14:25:38.345Z,58.93
2022-12-17T14:28:21.715Z,59.14
2022-12-17T14:31:25.570Z,58.87
2022-12-17T14:33:38.429Z,59.28
2022-12-17T14:36:09.262Z,59.38
2022-12-17T14:38:38.852Z,59.18
2022-12-17T14:41:32.140Z,59.34
2022-12-17T14:44:01.922Z,58.50
2022-12-17T14:46:32.514Z,58.92
2022-12-17T14:49:02.249Z,58.18
2022-12-17T14:51:33.259Z,58.60
2022-12-17T14:54:32.955Z,58.67
2022-12-17T14:57:05.935Z,58.46
2022-12-17T14:59:35.907Z,58.86
2022-12-17T15:02:15.559Z,58.91
2022-12-17T15:04:42.698Z,59.73
2022-12-17T15:07:18.035Z,59.43
2022-12-17T15:09:45.541Z,59.13
2022-12-17T15:12:20.531Z,59.68
2022-12-17T15:14:47.791Z,59.16
2022-12-17T15:17:15.682Z,59.14
2022-12-17T15:19:42.651Z,59.10
2022-12-17T15:22:15.551Z,59.43
2022-12-17T15:24:43.699Z,58.90
2022-12-17T15:27:14.210Z,58.72
2022-12-17T15:29:43.387Z,59.05
2022-12-17T15:32:17.783Z,58.74
2022-12-17T15:34:45.033Z,58.96
2022-12-17T15:37:13.049Z,59.35
2022-12-17T15:39:41.486Z,59.34
2022-12-17T15:42:28.421Z,59.52
2022-12-17T15:44:56.715Z,58.92
2022-12-17T15:47:23.743Z,59.38
2022-12-17T15:49:52.146Z,59.50
2022-12-17T15:52:19.828Z,59.36
2022-12-17T15:54:46.843Z,59.22
2022-12-17T15:57:18.357Z,58.76
2022-12-17T15:59:45.783Z,59.20
2022-12-17T16:02:14.279Z,59.82
2022-12-17T16:04:41.403Z,59.76
2022-12-17T16:07:08.742Z,59.33
2022-12-17T16:09:35.783Z,59.43
2022-12-17T16:12:02.933Z,59.42
2022-12-17T16:14:30.111Z,59.47
2022-12-17T16:16:57.378Z,59.46
2022-12-17T16:19:26.482Z,59.51
2022-12-17T16:21:53.475Z,59.18
2022-12-17T16:24:20.543Z,59.31
2022-12-17T16:26:47.613Z,60.19
2022-12-17T16:29:14.721Z,59.58
2022-12-17T16:31:41.911Z,59.96
2022-12-17T16:34:10.732Z,59.15
2022-12-17T16:36:39.414Z,59.10
2022-12-17T16:39:06.806Z,59.81
2022-12-17T16:41:35.058Z,59.14
2022-12-17T16:44:02.247Z,59.25
2022-12-17T16:46:32.523Z,59.57
2022-12-17T16:49:06.715Z,59.04
2022-12-17T16:51:34.300Z,58.81
2022-12-17T16:54:08.370Z,59.67
2022-12-17T16:56:39.921Z,58.54
2022-12-17T16:59:09.465Z,58.60
2022-12-17T17:01:38.915Z,58.41
2022-12-17T17:04:09.011Z,58.97
2022-12-17T17:06:39.263Z,59.25
2022-12-17T17:09:08.850Z,58.82
2022-12-17T17:11:35.971Z,59.24
2022-12-17T17:14:03.702Z,59.51
2022-12-17T17:16:31.083Z,60.31
2022-12-17T17:18:58.128Z,58.81
2022-12-17T17:21:28.919Z,58.79
2022-12-17T17:23:59.654Z,59.40
2022-12-17T17:26:30.409Z,59.36
2022-12-17T17:28:57.840Z,60.21
2022-12-17T17:31:46.495Z,59.72
2022-12-17T17:34:15.052Z,59.81
2022-12-17T17:36:42.872Z,60.09
2022-12-17T17:39:10.141Z,60.60
2022-12-17T17:41:38.562Z,60.35
2022-12-17T17:44:08.413Z,60.23
2022-12-17T17:46:35.967Z,60.30
2022-12-17T17:49:07.123Z,60.31
2022-12-17T17:52:08.360Z,60.34
2022-12-17T17:54:24.690Z,60.25
2022-12-17T17:56:53.140Z,60.24
2022-12-17T17:59:20.462Z,60.47
2022-12-17T18:01:49.867Z,60.63
2022-12-17T18:04:20.109Z,61.42
2022-12-17T18:07:23.062Z,60.66
2022-12-17T18:09:35.757Z,60.47
2022-12-17T18:12:24.700Z,60.58
2022-12-17T18:15:13.068Z,60.74
2022-12-17T18:17:39.360Z,61.29
2022-12-17T18:20:09.464Z,61.23
2022-12-17T18:22:36.502Z,60.54
2022-12-17T18:25:04.242Z,61.03
2022-12-17T18:27:32.829Z,60.99
2022-12-17T18:29:59.891Z,60.68
2022-12-17T18:32:26.951Z,61.13
2022-12-17T18:34:54.019Z,60.59
2022-12-17T18:37:21.039Z,60.97
2022-12-17T18:39:49.011Z,60.46
2022-12-17T18:42:34.610Z,60.70
2022-12-17T18:45:03.197Z,60.22
2022-12-17T18:47:30.356Z,60.74
2022-12-17T18:49:57.524Z,59.44
2022-12-17T18:52:24.713Z,60.19
2022-12-17T18:54:51.814Z,59.66
2022-12-17T18:57:18.814Z,60.68
2022-12-17T18:59:45.831Z,60.36
2022-12-17T19:02:15.184Z,60.02
2022-12-17T19:04:42.766Z,61.63
2022-12-17T19:07:10.360Z,59.89
2022-12-17T19:09:39.377Z,59.54
2022-12-17T19:12:09.466Z,60.02
2022-12-17T19:14:37.120Z,59.89
2022-12-17T19:17:05.787Z,59.47
2022-12-17T19:19:34.086Z,59.13
2022-12-17T19:22:01.962Z,58.91
2022-12-17T19:24:29.286Z,59.57
2022-12-17T19:26:56.597Z,59.10
2022-12-17T19:29:23.650Z,59.77
2022-12-17T19:31:50.745Z,59.47
2022-12-17T19:34:19.703Z,59.03
2022-12-17T19:36:48.189Z,59.63
2022-12-17T19:39:18.788Z,58.85
2022-12-17T19:41:46.793Z,58.76
2022-12-17T19:44:16.345Z,58.53
2022-12-17T19:46:44.365Z,59.03
2022-12-17T19:49:12.337Z,59.30
2022-12-17T19:51:44.052Z,59.58
2022-12-17T19:54:15.037Z,59.25
2022-12-17T19:56:44.561Z,59.45
2022-12-17T19:59:13.649Z,59.78
2022-12-17T20:01:43.480Z,60.03
2022-12-17T20:04:12.674Z,59.56
2022-12-17T20:06:39.674Z,60.12
2022-12-17T20:09:07.484Z,58.97
2022-12-17T20:11:37.151Z,59.86
2022-12-17T20:14:08.446Z,59.26
2022-12-17T20:16:39.124Z,59.33
2022-12-17T20:19:10.461Z,57.53
2022-12-17T20:21:37.807Z,58.36
2022-12-17T20:24:05.501Z,58.64
2022-12-17T20:26:32.598Z,58.70
2022-12-17T20:29:01.068Z,57.21
2022-12-17T20:31:28.725Z,57.25
2022-12-17T20:33:56.009Z,57.10
2022-12-17T20:36:23.551Z,56.95
2022-12-17T20:38:50.502Z,57.60
2022-12-17T20:41:20.888Z,57.95
2022-12-17T20:43:48.398Z,58.25
2022-12-17T20:46:19.299Z,57.07
2022-12-17T20:48:47.291Z,57.31
2022-12-17T20:51:18.409Z,58.13
2022-12-17T20:53:46.289Z,57.44
2022-12-17T20:56:18.137Z,58.02
2022-12-17T20:58:45.649Z,58.04
2022-12-17T21:01:18.460Z,58.05
2022-12-17T21:03:47.009Z,57.22
2022-12-17T21:06:17.919Z,57.83
2022-12-17T21:08:50.206Z,58.32
2022-12-17T21:11:19.822Z,57.52
2022-12-17T21:13:47.070Z,58.42
2022-12-17T21:16:18.259Z,57.89
2022-12-17T21:18:46.093Z,58.89
2022-12-17T21:21:18.218Z,58.83
2022-12-17T21:23:46.863Z,58.45
2022-12-17T21:26:17.732Z,59.44
2022-12-17T21:28:47.765Z,59.14
2022-12-17T21:31:18.232Z,59.24
2022-12-17T21:33:49.443Z,59.80
2022-12-17T21:36:19.671Z,59.57
2022-12-17T21:38:47.720Z,58.87
2022-12-17T21:41:17.635Z,59.02
2022-12-17T21:43:44.675Z,58.93
2022-12-17T21:46:13.064Z,58.88
2022-12-17T21:48:42.997Z,58.99
2022-12-17T21:51:13.469Z,59.54
2022-12-17T21:53:43.393Z,59.66
2022-12-17T21:56:12.951Z,58.80
2022-12-17T21:58:42.499Z,58.88
2022-12-17T22:01:19.116Z,58.56
2022-12-17T22:03:53.569Z,58.99
2022-12-17T22:06:23.875Z,58.80
2022-12-17T22:09:01.706Z,58.55
2022-12-17T22:11:32.226Z,58.58
2022-12-17T22:14:18.942Z,58.85
2022-12-17T22:16:49.519Z,58.08
2022-12-17T22:19:22.804Z,58.61
2022-12-17T22:21:57.695Z,59.30
2022-12-17T22:24:25.698Z,59.04
2022-12-17T22:26:59.934Z,59.60
2022-12-17T22:29:46.593Z,59.22
2022-12-17T22:32:32.569Z,59.93
2022-12-17T22:37:17.435Z,59.62
2022-12-17T22:43:34.122Z,59.09
2022-12-17T22:44:35.376Z,59.04
2022-12-17T22:44:36.242Z,58.90
2022-12-17T22:46:19.304Z,58.89
2022-12-17T22:48:47.168Z,59.31
2022-12-17T22:51:24.712Z,59.61
2022-12-17T22:54:06.113Z,59.63
2022-12-17T22:57:26.690Z,59.36
2022-12-17T22:59:21.886Z,59.33
2022-12-17T23:01:48.949Z,58.48
2022-12-17T23:04:16.704Z,58.61
2022-12-17T23:06:46.006Z,59.17
2022-12-17T23:09:14.492Z,58.88
2022-12-17T23:11:41.449Z,59.32
2022-12-17T23:14:08.774Z,59.78
2022-12-17T23:16:38.689Z,58.94
2022-12-17T23:19:07.378Z,58.82
2022-12-17T23:21:35.105Z,58.19
2022-12-17T23:24:04.935Z,58.57
2022-12-17T23:26:34.694Z,58.02
2022-12-17T23:29:05.311Z,58.26
2022-12-17T23:31:35.962Z,57.86
2022-12-17T23:34:03.557Z,57.82
2022-12-17T23:36:30.497Z,57.40
2022-12-17T23:38:57.720Z,57.21
2022-12-17T23:41:29.287Z,57.34
2022-12-17T23:43:58.178Z,58.48
2022-12-17T23:46:28.954Z,58.15
2022-12-17T23:48:56.333Z,58.52
2022-12-17T23:51:25.950Z,58.60
2022-12-17T23:53:52.985Z,58.70
2022-12-17T23:56:22.751Z,58.35
2022-12-17T23:58:54.660Z,58.60
